Address 0x8c95638ce53c630f600667b5c21fba12885ba042 15

 

Overview

Balance:
0.077532784537587363 ETH

ETH Value:
$102.65 (@ $1,323.95/ETH)

Token:
Txn Hash Method
Block
From
To
Value [Txn Fee]
0x2e3cf32c78544ad4e827b2e3d343e9723f888ea0455781253aa7af7950414122Create Increase ...276577912022-09-30 19:47:432 days 19 hrs ago0x8c95638ce53c630f600667b5c21fba12885ba042OUT0x3d6ba331e3d9702c5e8a8d254e5d8a285f223aba0.0001 ETH0.00010146
0x004494f6c899e504facfc2b2f846ab2f1ccda3b19dfe601a02d443527e6f54e3Approve276577232022-09-30 19:47:032 days 19 hrs ago0x8c95638ce53c630f600667b5c21fba12885ba042OUT 0xff970a61a04b1ca14834a43f5de4533ebddb5cc80 ETH0.00003185
0x756508abbf0edd4cbc25aff20cc2ac22de3c6fcc42c54df1804c0f3f3f2f5b66Approve Plugin276576612022-09-30 19:46:062 days 19 hrs ago0x8c95638ce53c630f600667b5c21fba12885ba042OUT 0xabbc5f99639c9b6bcb58544ddf04efa6802f40640 ETH0.00002608
0x3312459e35e95c9cb6b5bc74721c793aee1d52ec872a0118d1c5f4a9d91db574Handle Rewards272740432022-09-28 18:49:234 days 20 hrs ago0x8c95638ce53c630f600667b5c21fba12885ba042OUT 0xa906f338cb21815cbc4bc87ace9e68c87ef8d8f10 ETH0.0001317
0x4ab732065aa010e5393fae0d34ed357c9d95335d5c34dfa14b80fe87648e7295Handle Rewards234299622022-09-07 19:09:2425 days 20 hrs ago0x8c95638ce53c630f600667b5c21fba12885ba042OUT 0xa906f338cb21815cbc4bc87ace9e68c87ef8d8f10 ETH0.00011862
0x47098888c28906da4155397bbfb41570ee539eb523a0575e33d9216e85e95b6cMulticall225362452022-09-02 18:36:0930 days 21 hrs ago0x8c95638ce53c630f600667b5c21fba12885ba042OUT Uniswap V3: Router 20 ETH0.00202178
0x183b26b1102c2543e3fd712285593007b90e1aa6c3ec30fdce61e270c7f29449Approve225361682022-09-02 18:35:2630 days 21 hrs ago0x8c95638ce53c630f600667b5c21fba12885ba042OUT GMX: GMX Token0 ETH0.00073558
0x88d71ce87e46224f2a746ca4e9ef2c245c89773b7efad755d0eea5aaceb1b1f9Unstake Gmx225356802022-09-02 18:31:2530 days 21 hrs ago0x8c95638ce53c630f600667b5c21fba12885ba042OUT 0xa906f338cb21815cbc4bc87ace9e68c87ef8d8f10 ETH0.00009122
0xd4f53288478cd4a0ad527647a370739d4067428916aa716cc2814a4ccae01772Handle Rewards215199222022-08-27 9:43:3937 days 5 hrs ago0x8c95638ce53c630f600667b5c21fba12885ba042OUT 0xa906f338cb21815cbc4bc87ace9e68c87ef8d8f10 ETH0.000183482627 ETH
0x533b8ecea482dec2e8e309f55826d738110b11439c34f7bfa988d4f21bd9a459Stake Gmx208151502022-08-20 21:30:5543 days 18 hrs ago0x8c95638ce53c630f600667b5c21fba12885ba042OUT 0xa906f338cb21815cbc4bc87ace9e68c87ef8d8f10 ETH0.000140415673 ETH
0xd7f08a2d863b23738b08f6299e775339a5b37f2e1bb97eb1c11dbf4447254ee8Approve208151382022-08-20 21:30:3643 days 18 hrs ago0x8c95638ce53c630f600667b5c21fba12885ba042OUT GMX: GMX Token0 ETH0.00008339845 ETH
0xaedf4fa18768c648533662da8b5b8df2eba715cf1768382fc5dff86847919e04Multicall208149572022-08-20 21:26:1843 days 18 hrs ago0x8c95638ce53c630f600667b5c21fba12885ba042OUT Uniswap V3: Router 20.95 ETH0.00012955856 ETH
0x964d0b04769fc88069defc42286486f6f42af993ddb3c89419abefd0dbda50eeCreate Retryable...208145632022-08-20 21:19:0343 days 18 hrs ago0x8c95638ce53c630f600667b5c21fba12885ba042OUT Arbitrum: ArbRetryableTx1 ETH0.000000014665 ETH
0x4ea867ed6d714568ea18b124648bd5dbe2f1d0bc2a6898fd137b4fab8a8c0505Checkpoint202360662022-08-14 13:42:0050 days 1 hr ago0x8c95638ce53c630f600667b5c21fba12885ba042OUT Dopex: veDPX Yield Distributor0 ETH0.00006453774 ETH
0xde5afda891c87813b76f61ef83f74de21fc42cefd468ba574d2df395e6b0dbf4Create_lock202360372022-08-14 13:41:1250 days 1 hr ago0x8c95638ce53c630f600667b5c21fba12885ba042OUT Dopex: veDPX0 ETH0.000088576455 ETH
0x0ba67853e58560ae667c98ac959114518e9bbac0d1fa0328f5b0b035b186c363Approve202359982022-08-14 13:41:1250 days 1 hr ago0x8c95638ce53c630f600667b5c21fba12885ba042OUTDopex: DPX Token0 ETH0.000054758091 ETH
0x66a27f7320b64e55a5933581ce9cc0b2c0b0737c06c3e475bc72010ec618bb31Simple Swap202359352022-08-14 13:40:1250 days 1 hr ago0x8c95638ce53c630f600667b5c21fba12885ba042OUT0xdef171fe48cf0115b1d80b88dc8eab59176fee570 ETH0.000158928767 ETH
0xe66574ac8e701aeea21f4eb2bb1762cc1e8612305823c543ce8511f5692e61f9Approve202358982022-08-14 13:40:1250 days 1 hr ago0x8c95638ce53c630f600667b5c21fba12885ba042OUT Dopex: rDPX Token0 ETH0.000054611041 ETH
0x2ba5c2077ad25e6fbbb13686475eb7905f11fd3b686fbca10ca6426c7e4d5a81Simple Swap202358472022-08-14 13:39:3450 days 1 hr ago0x8c95638ce53c630f600667b5c21fba12885ba042OUT0xdef171fe48cf0115b1d80b88dc8eab59176fee570 ETH0.000158838503 ETH
0x9f650ead23bf42943eec4593f0d482b1c288133aa09f2b97e83eba24dc469c01Stake54601782022-02-05 20:46:12239 days 18 hrs ago0x8c95638ce53c630f600667b5c21fba12885ba042OUTDopex: Retired DPX Farm0 ETH0.000557625361 ETH
0x5e6e26b34634b968eb425d750ed4233d5d4bbc29f9a43866736d588adad0822aApprove54601562022-02-05 20:46:12239 days 18 hrs ago0x8c95638ce53c630f600667b5c21fba12885ba042OUTDopex: DPX Token0 ETH0.000498420839 ETH
0x648247da06a0c231e9d897eae6bee0994c1f60652acb5a35c2d8b9a86b174259Swap Exact Token...54600532022-02-05 20:44:59239 days 18 hrs ago0x8c95638ce53c630f600667b5c21fba12885ba042OUT SushiSwap: Router0 ETH0.000790501905 ETH
0x879e61da066cc3bac3645a3c88293530fa20c07227fc0b6f029589c4005dd08fSwap Exact Token...54599942022-02-05 20:44:59239 days 18 hrs ago0x8c95638ce53c630f600667b5c21fba12885ba042OUT SushiSwap: Router0 ETH0.000652362951 ETH
0xa8e59d9d1ce64e15037adb2512e75a6afc871faa6afb6f72bdcf2cf514174848Approve54599642022-02-05 20:44:59239 days 18 hrs ago0x8c95638ce53c630f600667b5c21fba12885ba042OUT 0xff970a61a04b1ca14834a43f5de4533ebddb5cc80 ETH0.000527760053 ETH
0x12fe923162d8d7bce59da4af592b2fdaa4584859a691501abf1446cfeb0afe19Remove_liquidity...54598352022-02-05 20:42:42239 days 18 hrs ago0x8c95638ce53c630f600667b5c21fba12885ba042OUT 0x25e2e8d104bc1a70492e2be32da7c1f8367f9d2c0 ETH0.000529704474 ETH
[ Download CSV Export 
Latest 8 internal transactions
Parent Txn Hash Block From To Value
0x3312459e35e95c9cb6b5bc74721c793aee1d52ec872a0118d1c5f4a9d91db574272740432022-09-28 18:49:234 days 20 hrs ago 0xa906f338cb21815cbc4bc87ace9e68c87ef8d8f10x8c95638ce53c630f600667b5c21fba12885ba0420.004889312916053701 ETH
0x4ab732065aa010e5393fae0d34ed357c9d95335d5c34dfa14b80fe87648e7295234299622022-09-07 19:09:2425 days 20 hrs ago 0xa906f338cb21815cbc4bc87ace9e68c87ef8d8f10x8c95638ce53c630f600667b5c21fba12885ba0420.002496617468056294 ETH
0xd4f53288478cd4a0ad527647a370739d4067428916aa716cc2814a4ccae01772215199222022-08-27 9:43:3937 days 5 hrs ago 0xa906f338cb21815cbc4bc87ace9e68c87ef8d8f10x8c95638ce53c630f600667b5c21fba12885ba0420.001346513782871376 ETH
0x2ba5c2077ad25e6fbbb13686475eb7905f11fd3b686fbca10ca6426c7e4d5a81202358472022-08-14 13:39:3450 days 1 hr ago 0xdef171fe48cf0115b1d80b88dc8eab59176fee570x8c95638ce53c630f600667b5c21fba12885ba0420.01179331934103717 ETH
0x5e6e26b34634b968eb425d750ed4233d5d4bbc29f9a43866736d588adad0822a54601562022-02-05 20:46:12239 days 18 hrs ago 0x8c95638ce53c630f600667b5c21fba12885ba042 0x3f770ac673856f105b586bb393d122721265ad460 ETH
0x879e61da066cc3bac3645a3c88293530fa20c07227fc0b6f029589c4005dd08f54599942022-02-05 20:44:59239 days 18 hrs ago SushiSwap: Router0x8c95638ce53c630f600667b5c21fba12885ba0420.009906897396326351 ETH
0xa8e59d9d1ce64e15037adb2512e75a6afc871faa6afb6f72bdcf2cf51417484854599642022-02-05 20:44:59239 days 18 hrs ago 0x8c95638ce53c630f600667b5c21fba12885ba042 0x1efb3f88bc88f03fd1804a5c53b7141bbef5ded80 ETH
0x21a8890b083371ceb3abf22009e5639d960b1b836f0b0989ddfd29f58a271e1332717502021-11-23 14:09:51314 days 1 hr ago 0x8c95638ce53c630f600667b5c21fba12885ba042 0x1efb3f88bc88f03fd1804a5c53b7141bbef5ded80 ETH
[ Download CSV Export 
Latest 1 Deposit
[ Download CSV Export 
Loading

Contract Name:
0 ETH

Compiler Version
0

Optimization Enabled:
0 ETH

Other Settings:
-NA-
Block Transaction Gas Used Reward
Age Block Fee Address BC Fee Address Voting Power Jailed Incoming
Block Uncle Number Difficulty Gas Used Reward
Loading
Make sure to use the "Vote Down" button for any spammy posts, and the "Vote Up" for interesting conversations.